Date,TemperatureHighF,TemperatureAvgF,TemperatureLowF,DewpointHighF,DewpointAvgF,DewpointLowF,HumidityHigh,HumidityAvg,HumidityLow,PressureMaxIn,PressureMinIn,WindSpeedMaxMPH,WindSpeedAvgMPH,GustSpeedMaxMPH,PrecipitationSumIn
2013-1-6,50.4,40.0,29.1,27.2,23.8,21.1,83,54,36,30.46,30.35,7,1,7,0.28
2013-1-7,53.5,40.7,26.6,31.7,27.6,20.8,85,61,40,30.36,30.11,15,3,17,0.01
2013-1-8,58.7,45.7,35.6,46.0,37.1,27.1,95,73,49,30.20,30.02,14,3,16,0.16
2013-1-9,52.9,48.7,45.3,45.5,44.1,42.4,96,85,69,30.34,30.11,14,3,18,0.01
2013-1-10,56.9,50.2,47.7,55.7,48.6,44.0,97,94,81,30.12,29.80,12,4,15,0.36
2013-1-11,70.8,57.7,46.7,52.6,47.6,34.3,94,71,39,29.83,29.64,20,6,23,0.25
2013-1-12,59.2,36.9,26.1,34.8,26.5,19.8,86,68,35,30.15,29.81,12,4,17,0.03
2013-1-13,32.4,25.5,19.4,19.9,15.1,11.9,76,65,49,30.45,30.04,10,3,14,0.00
2013-1-14,35.4,26.8,20.7,20.1,16.0,12.2,80,64,45,30.53,30.37,11,3,13,0.00
2013-1-15,36.5,27.9,21.3,21.0,17.6,12.7,85,67,39,30.37,30.23,8,2,10,0.00
2013-1-16,49.9,33.1,18.4,25.8,18.9,13.6,87,59,32,30.26,30.14,9,1,11,0.01
2013-1-17,55.7,42.4,31.2,34.2,29.8,22.1,83,63,40,30.50,30.25,8,1,12,0.01
2013-1-18,60.4,47.6,34.5,35.1,31.7,26.8,75,55,35,30.50,30.15,18,5,19,0.00
2013-1-19,66.9,51.8,39.5,39.0,36.2,33.7,81,57,35,30.21,30.06,14,3,20,0.02
2013-1-20,64.3,46.3,30.5,41.6,31.6,16.8,79,57,43,30.32,30.11,16,3,16,0.11
2013-1-21,41.9,31.9,24.5,19.3,16.4,13.5,67,54,33,30.45,30.30,12,3,12,0.26
2013-1-22,55.3,37.6,21.8,30.7,24.7,16.6,83,62,38,30.35,30.19,12,3,16,0.04
2013-1-23,64.1,45.7,29.2,45.1,35.8,25.1,86,70,50,30.26,30.11,13,2,17,0.08
2013-1-24,43.5,39.1,35.2,30.8,26.8,23.3,64,61,58,30.27,30.24,14,6,21,0.00
2013-2-24,50.1,47.4,46.4,38.0,37.2,36.7,70,68,63,29.83,29.80,10,2,11,0.00
2013-2-25,46.8,39.5,32.5,37.7,35.6,31.5,96,87,67,29.80,29.48,16,5,23,1.14
2013-2-26,43.2,37.8,31.5,35.4,32.5,28.4,95,81,73,29.95,29.63,15,3,21,0.38
2013-2-27,47.5,37.1,30.2,33.6,29.5,27.7,92,75,51,30.19,29.94,14,3,19,0.00
2013-2-28,47.4,37.6,29.0,33.3,29.5,26.4,91,73,55,30.26,30.19,14,3,14,0.00
2013-3-1,40.5,35.2,30.5,28.9,25.4,18.3,76,67,59,30.37,30.23,12,4,15,0.00
2013-3-2,48.4,35.7,24.0,24.7,22.2,19.1,85,60,38,30.43,30.19,9,2,12,0.00
2013-3-3,65.4,49.9,32.1,36.3,30.3,20.8,70,48,32,30.20,29.61,17,4,19,0.00
2013-3-4,73.8,58.0,43.5,44.0,40.0,32.7,75,54,30,30.06,29.53,17,4,23,0.00
2013-3-5,50.1,41.3,34.3,36.7,25.9,19.5,88,56,35,30.42,30.06,16,5,19,0.02
2013-3-6,51.7,39.7,27.6,27.1,22.6,19.2,76,52,30,30.48,30.22,7,2,10,0.00
2013-3-7,69.0,53.1,36.5,33.3,29.5,26.4,67,43,23,30.25,30.05,18,5,19,0.00
2013-3-8,58.9,54.2,47.8,46.4,39.6,32.8,73,58,48,30.14,29.92,16,6,19,0.00
2013-3-9,65.3,58.9,52.6,58.7,51.3,39.2,96,77,48,29.94,29.61,19,5,23,0.62
2013-3-10,58.2,40.4,32.6,52.3,35.1,25.8,94,82,59,30.06,29.58,14,4,22,0.00
2013-3-11,54.1,39.6,28.1,28.5,24.0,18.1,86,57,25,30.08,29.99,11,2,13,0.00
2013-3-12,60.2,46.9,34.4,40.2,31.4,23.3,83,57,30,30.38,30.07,11,2,13,0.00
2013-3-13,58.7,45.4,31.7,32.6,27.4,23.8,92,53,28,30.50,30.31,9,2,12,0.00
2013-3-14,81.0,62.4,45.2,45.3,37.5,24.6,55,41,26,30.31,30.06,14,3,16,0.00
2013-3-15,86.8,69.8,54.1,49.3,46.7,43.9,72,47,26,30.07,29.70,14,4,19,0.00
2013-3-16,71.0,61.2,46.3,50.8,45.8,38.3,74,58,45,29.84,29.66,14,4,20,0.00
2013-3-17,46.3,42.6,39.6,41.9,39.5,36.0,95,89,74,29.85,29.69,14,3,17,0.00
2013-3-18,62.9,48.9,39.4,41.9,34.3,23.3,95,63,26,30.05,29.71,10,2,14,0.00
2013-3-19,61.9,48.2,38.3,33.2,29.2,19.4,77,50,28,30.28,30.02,13,3,16,0.00
2013-3-20,53.6,44.1,34.3,34.4,27.1,21.2,90,56,29,30.42,30.04,11,2,16,0.00
2013-3-21,43.4,40.3,38.4,34.8,29.0,21.7,84,65,45,30.04,29.73,16,6,24,0.00
2013-3-22,47.8,41.5,37.0,39.6,37.2,34.7,94,85,71,29.94,29.79,10,3,14,0.37
2013-3-23,41.6,39.8,36.5,40.5,38.0,35.2,96,93,86,29.93,29.74,11,3,13,0.11
2013-3-24,41.9,34.8,30.1,35.5,27.3,21.1,95,75,47,30.24,29.83,19,5,23,0.05
2013-3-25,40.9,33.7,28.0,25.2,22.2,19.1,83,64,44,30.43,30.22,16,4,17,0.00
2013-3-26,53.9,38.5,23.0,26.6,22.9,18.9,86,57,30,30.50,30.28,7,2,9,0.00
2013-3-27,69.3,52.7,34.4,37.5,30.8,24.7,72,46,29,30.28,30.07,20,5,24,0.00
2013-3-28,74.9,61.1,44.8,53.4,44.7,31.0,71,55,39,30.17,30.02,13,4,18,0.00
2013-3-29,72.2,62.6,53.9,59.4,55.9,50.8,94,79,63,30.11,30.02,11,3,16,0.04
2013-3-30,81.2,66.2,55.3,62.3,56.5,52.1,93,73,46,30.06,29.79,14,3,14,0.24
2013-3-31,72.2,60.4,51.0,56.3,46.8,39.2,96,64,36,30.00,29.84,19,2,26,0.01
2013-4-1,61.7,50.4,43.4,44.4,40.2,31.5,91,69,53,30.18,29.95,14,4,18,0.00
2013-4-2,43.4,39.8,37.7,38.8,36.2,30.6,95,88,61,30.25,30.16,13,5,16,0.55
2013-4-3,41.7,39.8,37.8,39.0,36.6,33.7,95,88,76,30.27,30.17,11,2,13,1.10
2013-4-4,60.4,48.1,38.9,42.9,38.3,33.3,95,72,39,30.24,30.10,9,2,11,0.33
2013-4-5,71.8,56.1,38.1,47.2,42.6,36.5,96,65,35,30.22,29.91,15,3,18,0.00
2013-4-6,79.0,66.6,57.7,54.1,50.7,46.9,72,58,41,29.91,29.74,16,5,24,0.00
2013-4-7,68.0,63.1,55.9,60.1,57.5,52.1,92,82,72,29.84,29.68,19,4,19,0.00
2013-4-8,77.0,68.8,63.6,64.4,61.3,58.3,89,77,64,29.70,29.58,16,6,22,0.00
2013-4-9,81.2,68.8,41.1,65.8,59.8,36.7,87,74,59,29.82,29.58,18,6,20,0.00
2013-4-10,41.9,37.4,35.8,39.7,34.8,31.2,95,90,82,30.00,29.79,13,4,18,0.44
2013-4-11,57.2,43.7,32.7,38.7,31.9,28.3,88,65,42,29.98,29.80,11,2,15,0.00
2013-4-12,63.1,50.5,38.1,42.8,35.2,30.6,90,58,36,30.05,29.84,10,2,12,0.00
2013-4-13,75.5,61.0,46.6,52.7,46.0,38.3,92,60,38,30.06,29.69,18,5,21,0.31
2013-4-14,83.2,70.3,58.2,59.2,51.6,39.1,68,52,39,29.69,29.44,23,6,25,0.00
2013-4-15,74.8,61.8,52.2,58.1,44.9,34.0,77,55,35,29.85,29.65,15,4,17,0.00
2013-4-16,56.0,51.5,48.7,49.2,46.3,41.9,90,83,68,29.98,29.81,10,3,13,0.00
2013-4-17,82.5,66.1,50.4,70.1,60.1,47.3,97,82,60,29.92,29.49,23,4,26,1.56
2013-4-18,63.8,43.7,39.4,62.9,37.0,28.2,97,78,59,30.11,29.50,20,4,30,0.33
2013-4-19,64.6,49.4,33.9,41.3,32.2,26.5,83,54,31,30.19,30.04,10,2,13,0.00
2013-4-20,73.5,58.4,41.3,40.9,37.4,31.7,83,49,23,30.16,29.99,18,3,19,0.00
2013-4-21,72.4,62.3,54.5,46.4,43.2,40.1,66,51,34,30.19,30.05,16,4,18,0.00
2013-4-22,77.7,64.4,48.9,56.7,49.5,42.6,81,60,43,30.09,29.81,17,4,19,0.00
2013-4-23,61.5,42.3,36.6,56.6,39.6,32.5,94,90,79,30.25,29.81,17,4,17,0.15
2013-4-24,59.9,46.5,33.5,35.3,30.9,27.6,89,58,30,30.35,30.23,13,2,16,0.00
2013-4-25,73.6,58.1,37.0,40.3,34.6,30.0,76,45,22,30.37,30.14,11,2,13,0.00
2013-4-26,63.0,56.0,52.9,52.8,48.3,40.1,96,78,43,30.16,29.97,15,4,18,0.27
2013-4-27,56.5,52.8,51.8,53.0,51.7,50.9,97,96,86,30.09,30.01,7,1,10,0.06
2013-5-4,47.4,45.5,42.0,44.2,42.2,39.8,92,88,85,30.07,29.95,10,2,14,0.20
2013-5-5,59.9,52.2,45.2,52.4,47.7,42.9,94,85,74,30.16,30.07,7,2,10,0.00
2013-5-6,71.4,56.5,46.7,57.5,51.4,45.4,97,84,59,30.14,30.00,8,1,8,0.00
2013-5-7,79.2,64.2,49.1,59.8,52.5,48.0,97,70,35,30.09,29.93,8,1,9,0.00
2013-5-8,85.5,71.7,61.7,64.4,57.1,51.3,94,62,36,29.98,29.81,13,3,16,0.20
2013-5-9,72.8,64.2,57.9,65.3,61.4,56.1,97,91,74,29.93,29.80,10,1,14,0.70
2013-5-10,73.1,63.5,55.4,61.8,57.6,52.7,98,83,58,30.08,29.90,7,1,10,0.00
2013-5-11,78.5,63.3,50.5,60.4,51.0,39.2,97,68,31,30.23,30.06,10,1,13,0.00
2013-5-12,72.9,60.5,44.8,48.6,43.2,36.4,88,56,30,30.28,30.10,10,2,10,0.00
2013-5-13,90.9,73.9,54.2,61.0,52.9,43.4,75,50,33,30.11,29.96,12,2,14,0.00
2013-5-18,88.6,81.4,66.3,77.7,73.3,62.1,94,77,61,29.85,29.65,15,4,15,0.00
2013-5-19,83.5,74.9,65.4,73.8,68.9,63.1,94,82,70,29.81,29.51,16,4,19,0.67
2013-5-20,85.4,74.7,67.7,76.0,70.0,66.5,97,86,71,29.72,29.54,13,2,16,0.28
2013-5-21,67.7,61.9,57.1,66.8,59.5,56.0,97,92,80,29.90,29.66,8,1,12,0.40
2013-5-22,82.5,67.6,54.7,63.2,58.5,53.6,97,75,46,29.90,29.78,5,1,7,0.01
2013-5-23,64.6,61.2,59.4,61.1,58.7,55.4,97,92,81,30.12,29.89,11,1,14,0.38
2013-5-24,79.1,69.1,58.4,70.7,63.7,57.0,97,84,71,30.18,30.06,11,3,14,0.00
2013-5-25,84.7,74.4,63.7,71.1,66.3,61.5,93,77,59,30.13,29.95,16,4,17,0.00
2013-5-26,85.3,76.1,67.9,73.9,69.0,63.1,93,79,66,30.01,29.85,14,4,17,0.00
2013-5-27,83.3,77.5,70.9,73.2,69.9,67.0,92,78,67,29.87,29.65,18,6,25,0.00
2013-5-28,82.2,77.5,73.8,71.6,69.0,66.6,85,75,66,29.75,29.65,17,5,22,0.00
2013-5-29,78.9,73.6,63.1,71.5,67.6,61.1,97,82,73,29.76,29.62,15,4,20,0.94
2013-5-30,73.7,72.8,70.3,72.4,71.5,69.1,97,96,93,29.64,29.61,8,2,10,3.63
2013-5-31,87.5,79.3,69.0,77.6,73.5,67.8,96,83,69,29.69,29.52,18,4,23,0.14
2013-6-1,80.1,70.6,63.5,68.0,61.9,57.6,97,76,52,29.98,29.60,7,1,11,0.03
2013-6-2,73.9,64.9,57.6,60.1,56.5,52.1,89,75,58,30.07,29.97,10,2,11,0.00
2013-6-3,82.3,69.3,54.6,67.3,61.1,52.9,95,77,55,30.00,29.80,10,2,12,0.00
2013-6-4,83.1,74.1,66.1,72.6,67.9,63.3,95,82,65,29.92,29.71,19,2,20,0.54
2013-6-5,82.7,72.8,65.2,71.6,67.6,63.6,97,84,64,29.94,29.80,11,1,20,0.93
2013-6-6,78.6,70.0,62.5,64.5,60.8,56.1,92,74,51,29.94,29.87,7,1,12,0.00
2013-6-7,81.4,69.9,57.5,64.1,59.9,56.1,97,73,47,29.98,29.86,5,0,7,0.00
2013-6-8,83.0,73.7,63.4,67.2,62.0,56.5,82,68,51,29.89,29.73,12,3,16,0.00
2013-6-9,90.4,77.8,66.2,68.9,64.0,60.2,90,64,41,29.87,29.72,12,1,16,0.00
2013-6-10,95.3,83.0,69.8,75.7,69.6,61.4,85,66,46,29.87,29.77,10,2,12,0.00
2013-6-11,94.5,84.7,73.1,74.6,70.5,65.5,78,64,44,29.89,29.79,15,4,19,0.00
2013-6-12,95.0,85.0,76.3,75.8,72.7,70.9,84,68,49,29.88,29.80,16,3,22,0.00
2013-6-13,91.8,82.3,74.8,77.7,72.4,68.4,91,73,58,29.97,29.85,5,1,8,0.00
2013-6-14,96.4,85.1,72.7,79.5,74.0,68.8,89,71,50,29.92,29.81,8,2,11,0.00
2013-6-15,88.0,77.5,71.4,78.6,73.2,69.3,96,87,71,29.95,29.86,13,2,16,0.13
2013-6-16,95.5,78.4,69.6,79.3,72.3,66.2,97,83,54,29.95,29.80,12,1,12,0.03
2013-6-17,81.8,72.4,66.5,71.5,68.1,65.2,97,87,66,29.97,29.78,17,1,17,0.71
2013-6-18,88.0,77.0,66.7,74.3,68.8,65.7,98,78,50,29.99,29.88,6,1,7,0.00
2013-6-19,86.2,78.0,68.4,71.8,68.6,64.7,90,74,55,29.98,29.87,12,2,13,0.00
2013-6-20,92.4,82.6,71.7,79.2,73.5,68.4,90,75,59,29.95,29.83,12,4,18,0.00
2013-6-21,93.5,84.4,77.1,77.0,72.8,69.5,83,69,52,29.95,29.87,13,4,17,0.00
2013-6-22,92.5,83.6,76.1,74.9,70.2,67.0,81,66,45,29.93,29.80,13,4,16,0.00
2013-6-23,93.8,84.2,76.8,74.0,71.5,69.6,83,67,48,29.87,29.77,17,4,17,0.00
2013-6-24,92.3,83.4,74.4,73.9,70.9,66.8,88,68,46,29.93,29.80,15,4,17,0.00
2013-6-25,90.9,83.2,77.0,75.8,72.9,70.5,82,72,58,29.84,29.71,22,4,22,0.00
2013-6-26,97.3,87.2,78.8,79.6,74.6,68.8,80,67,53,29.84,29.72,11,2,15,0.00
2013-6-27,100.0,88.2,76.7,80.7,74.9,60.8,91,67,38,29.90,29.75,11,2,18,0.00
2013-6-28,97.3,86.3,75.8,74.0,69.8,60.4,85,60,37,29.91,29.72,9,1,11,0.00
2013-6-29,92.5,81.1,69.0,66.8,61.9,57.5,87,55,35,29.89,29.75,14,2,14,0.00
2013-6-30,85.3,75.5,66.0,62.0,58.6,54.7,79,57,37,29.97,29.83,10,2,12,0.00
2013-7-1,85.5,74.6,65.0,62.3,57.9,51.6,82,58,37,30.04,29.96,9,2,11,0.00
2013-7-2,87.0,73.3,58.7,62.6,57.0,52.6,91,60,34,30.08,29.99,6,1,14,0.00
2013-7-3,87.3,73.9,60.1,62.7,57.0,50.6,94,60,31,30.06,29.94,8,1,12,0.00
2013-7-4,92.8,78.7,65.2,66.9,61.4,55.8,77,57,36,29.99,29.86,10,2,12,0.00
2013-7-5,92.9,80.2,67.7,67.6,63.7,59.2,81,59,35,29.95,29.83,9,2,11,0.00
2013-7-6,91.1,81.4,73.3,69.9,65.9,61.4,70,60,48,29.91,29.84,10,3,15,0.00
2013-7-7,97.0,85.9,76.4,72.0,68.0,63.8,72,56,40,29.95,29.86,12,3,14,0.00
2013-7-8,98.6,86.8,76.2,75.8,71.1,66.3,78,61,42,30.00,29.91,10,3,11,0.00
2013-7-9,102.5,89.6,78.2,74.7,72.1,69.0,77,58,40,29.98,29.85,12,3,14,0.00
2013-7-10,102.5,88.6,79.1,75.5,70.9,66.2,83,58,36,29.91,29.82,9,1,10,0.00
2013-7-11,100.8,85.5,75.2,77.4,73.8,66.6,91,70,44,29.92,29.80,13,1,16,0.00
2013-7-12,98.4,86.2,74.4,76.2,73.1,70.9,92,67,47,29.93,29.85,10,2,12,0.00
2013-7-13,97.4,86.4,75.0,71.7,69.2,63.8,86,59,41,29.95,29.83,9,3,15,0.00
2013-7-14,88.7,76.7,68.8,69.6,66.4,60.9,94,72,45,30.00,29.82,10,2,14,0.16
2013-7-15,76.5,69.9,65.2,70.4,66.9,62.1,96,90,78,30.14,29.99,11,1,14,0.77
2013-7-16,90.9,79.2,69.6,74.5,70.6,67.2,96,77,52,30.20,30.10,10,2,15,0.00
2013-7-17,93.3,81.9,72.1,75.4,72.4,68.8,95,75,49,30.23,30.12,7,1,9,0.00
2013-7-18,96.8,84.2,72.6,76.3,72.7,69.8,97,71,45,30.14,29.95,6,0,10,0.00
2013-7-19,99.3,86.0,73.0,76.0,71.5,68.4,91,65,39,29.97,29.83,7,1,10,0.00
2013-7-20,96.0,84.1,72.9,81.9,72.4,68.8,92,69,46,29.88,29.75,16,2,23,0.46
2013-7-21,92.1,79.1,70.5,80.5,73.7,69.3,97,85,63,29.87,29.74,10,2,12,0.99
2013-7-22,99.4,88.2,76.4,78.8,74.9,71.5,85,66,47,29.83,29.70,10,2,13,0.00
2013-7-23,102.1,89.0,69.6,79.1,74.9,67.3,94,65,44,29.87,29.69,17,1,31,0.39
2013-7-24,89.7,77.9,68.7,76.3,71.4,66.9,96,82,61,29.97,29.79,12,1,15,0.82
2013-7-25,88.7,78.9,71.8,75.4,72.8,70.3,96,82,63,30.03,29.92,5,1,7,0.00
2013-7-26,81.3,75.3,71.2,75.7,72.1,69.0,95,90,79,29.98,29.85,11,1,14,0.67
2013-7-27,84.3,77.6,69.6,69.4,66.4,62.7,86,69,52,30.03,29.91,6,1,9,0.01
2013-7-28,85.9,75.8,67.1,72.9,67.3,62.8,87,76,62,29.98,29.88,8,2,11,0.00
2013-7-29,90.9,79.7,71.2,78.0,72.5,67.3,95,79,61,29.96,29.82,13,3,18,0.87
2013-7-30,92.4,80.3,70.3,79.1,74.2,68.8,97,83,60,29.97,29.90,9,1,12,1.30
2013-7-31,90.8,82.4,75.7,78.8,75.4,71.6,94,80,59,30.03,29.94,6,1,9,0.00
2013-8-1,91.7,81.2,70.5,74.4,70.9,66.8,95,73,46,30.04,29.88,6,1,8,0.00
2013-8-2,95.4,85.0,77.1,82.6,76.1,70.2,87,76,60,29.90,29.74,12,3,14,0.00
2013-8-3,86.5,80.9,76.8,77.8,74.7,71.8,93,82,64,30.00,29.79,12,3,16,0.07
2013-8-4,87.7,81.1,76.1,80.6,76.6,73.2,94,87,78,30.02,29.88,8,2,11,0.01
2013-8-5,99.8,87.0,74.5,81.1,76.0,72.3,95,72,49,29.89,29.72,11,2,11,0.00
2013-8-6,101.0,89.4,76.1,77.9,73.8,70.6,86,62,45,29.81,29.69,12,2,12,0.00
2013-8-7,94.4,85.9,78.9,80.6,75.4,70.0,84,72,57,29.81,29.72,7,2,11,0.00
2013-8-8,86.1,78.9,70.7,77.9,73.8,69.1,95,85,71,29.88,29.76,9,2,13,0.26
2013-8-9,85.4,76.1,70.0,75.8,71.9,67.6,96,87,69,30.04,29.83,14,1,17,1.84
2013-8-10,85.2,76.0,68.5,74.6,70.0,65.4,95,82,68,30.09,29.99,7,1,10,0.00
2013-8-11,90.8,79.8,71.9,77.2,72.8,69.8,94,80,57,30.05,29.94,5,0,6,0.00
2013-8-12,89.0,79.2,74.4,77.9,74.4,71.5,94,86,67,30.02,29.88,9,1,12,0.39
2013-8-13,83.6,74.9,70.7,75.9,71.7,68.2,97,90,75,30.03,29.91,14,1,15,0.45
2013-8-14,84.8,74.5,66.7,72.8,66.9,64.2,92,78,59,30.08,29.98,7,1,11,0.00
2013-8-15,83.4,72.8,64.6,71.6,65.4,61.4,95,79,61,30.06,29.93,18,2,18,0.44
2013-8-16,82.5,72.3,65.5,70.2,66.6,63.7,97,83,61,30.07,29.93,8,1,11,0.22
2013-8-17,81.0,72.0,63.5,69.1,64.3,61.7,94,78,55,30.11,30.01,8,1,8,0.00
2013-8-18,85.8,74.3,63.4,69.8,65.5,61.9,96,76,52,30.10,29.99,6,1,7,0.00
2013-8-19,89.0,77.1,66.7,72.1,68.0,64.3,93,75,52,30.06,29.93,9,2,10,0.00
2013-8-20,91.0,79.3,67.8,73.3,68.2,64.1,89,70,50,30.02,29.92,10,2,14,0.00
2013-8-21,94.3,81.4,68.2,73.5,68.9,65.8,92,68,44,30.03,29.95,11,2,11,0.00
2013-8-22,94.3,83.5,73.6,75.8,71.3,66.3,83,68,49,30.03,29.92,8,2,8,0.00
2013-8-23,94.0,82.6,73.9,77.7,72.7,69.0,86,73,51,29.99,29.90,9,2,11,0.00
2013-8-24,93.7,82.5,72.9,78.5,72.9,70.5,93,74,50,30.06,29.96,8,2,9,0.00
2013-8-25,95.5,83.8,73.3,77.7,73.0,70.5,92,72,49,30.12,30.04,7,2,8,0.00
2013-8-26,93.4,84.7,74.0,74.5,71.8,69.3,86,67,49,30.13,30.01,9,2,11,0.00
2013-8-28,91.5,84.4,79.0,73.5,72.9,72.3,81,69,54,29.95,29.93,3,1,5,0.00
2013-8-29,101.5,88.1,78.1,73.6,71.3,68.1,82,60,35,29.99,29.90,6,1,10,0.00
2013-8-30,102.7,89.8,79.0,73.2,70.7,68.1,72,56,35,29.92,29.78,8,2,10,0.00
2013-8-31,105.1,90.9,78.7,74.4,70.7,67.5,69,54,32,29.82,29.70,10,2,11,0.00
2013-9-1,94.0,84.6,77.5,76.7,72.5,67.9,89,68,55,29.85,29.71,8,1,12,0.00
2013-9-2,89.9,82.0,69.9,74.9,65.2,61.5,92,59,40,29.98,29.85,10,1,10,0.00
2013-9-3,91.3,77.0,64.3,68.9,63.8,58.7,95,67,35,30.02,29.92,6,1,8,0.00
2013-9-4,69.8,67.1,66.0,63.1,62.1,60.5,88,84,75,30.01,29.98,2,0,3,0.00
2013-9-7,102.4,91.6,74.4,69.4,67.2,65.3,76,47,32,29.95,29.83,10,2,11,0.00
2013-9-8,101.6,88.1,74.0,69.6,67.3,64.3,77,53,32,29.89,29.80,10,2,12,0.00
2013-9-9,97.8,86.3,74.6,70.3,64.8,62.1,68,50,33,29.91,29.83,14,2,17,0.00
2013-9-10,97.2,85.1,75.3,69.3,64.9,59.1,70,53,30,30.03,29.90,11,3,15,0.00
2013-9-11,98.8,85.1,70.3,70.2,65.3,62.9,79,54,33,30.08,29.95,9,1,11,0.00
2013-9-12,97.8,81.7,71.2,72.4,69.3,65.8,87,68,39,30.04,29.93,7,1,13,0.00
2013-9-13,87.3,76.9,68.4,70.3,60.5,53.8,84,59,38,30.03,29.91,8,2,9,0.00
2013-9-14,88.1,75.4,62.5,64.3,59.7,54.9,77,59,43,30.01,29.88,8,3,10,0.00
2013-9-15,93.5,79.9,66.9,68.4,62.4,53.6,75,56,41,29.97,29.90,11,2,14,0.00
2013-9-16,87.1,76.4,70.5,73.4,69.6,66.7,95,81,54,30.13,29.95,10,1,10,0.17
2013-9-17,83.2,73.6,68.9,73.0,69.1,67.4,96,87,66,30.07,29.90,6,2,9,0.27
2013-9-18,95.0,82.1,72.0,75.0,70.5,68.1,88,70,46,29.94,29.80,12,3,17,0.00
2013-9-19,95.4,78.0,68.9,75.2,70.5,66.9,95,79,47,29.91,29.78,15,2,18,0.98
2013-9-20,70.5,67.4,61.0,69.3,62.4,56.9,97,85,65,29.97,29.88,9,1,10,0.11
2013-9-21,81.3,67.5,54.8,60.9,56.9,52.8,95,72,44,30.01,29.88,5,0,6,0.01
2013-9-22,81.5,68.0,55.4,56.6,52.8,48.2,90,62,35,29.94,29.79,9,2,9,0.00
2013-9-23,82.0,70.1,55.1,59.2,55.3,52.0,91,62,40,29.85,29.71,11,3,13,0.00
2013-9-24,83.3,71.5,61.6,62.0,58.0,54.0,88,64,43,29.87,29.80,10,2,14,0.00
2013-9-25,87.0,71.3,56.9,63.5,60.0,55.5,96,71,40,29.88,29.73,6,1,7,0.00
2013-9-26,93.6,78.4,62.6,65.2,61.3,57.8,87,59,36,29.83,29.75,12,4,16,0.00
2013-9-27,90.5,78.9,67.1,67.5,62.5,57.2,82,59,34,29.89,29.76,15,4,18,0.00
2013-9-28,77.4,67.5,57.0,69.7,61.8,55.6,96,83,64,30.06,29.77,13,2,16,1.86
2013-9-29,76.6,63.1,52.1,60.8,55.5,51.0,97,79,48,30.08,29.90,5,0,8,0.01
2013-9-30,84.2,68.1,52.8,60.6,56.2,50.9,95,69,37,29.90,29.78,9,1,10,0.00
2013-10-1,87.5,75.0,63.7,71.9,66.5,59.4,97,77,49,29.91,29.80,11,2,12,0.00
2013-10-2,86.9,77.5,70.4,73.0,70.2,68.9,96,80,59,29.94,29.79,12,3,15,0.00
2013-10-3,89.9,78.8,70.7,74.9,70.3,68.1,92,76,54,29.83,29.68,16,4,18,0.00
2013-10-4,87.6,77.4,73.6,72.3,70.7,69.7,89,80,59,29.80,29.74,15,5,19,0.00
2013-10-6,69.5,61.1,50.3,48.1,45.0,40.3,83,57,42,30.06,29.98,10,2,13,0.00
2013-10-7,75.7,60.0,45.4,49.1,44.5,41.0,92,60,30,30.18,30.04,4,0,6,0.00
2013-10-8,77.1,63.1,51.4,55.3,50.6,45.2,85,65,44,30.11,29.97,13,3,13,0.00
2013-10-9,80.3,65.5,52.0,60.0,54.7,49.5,92,70,46,30.06,29.95,9,2,12,0.00
2013-10-10,81.8,69.3,56.7,63.5,58.4,53.5,89,69,51,30.02,29.81,12,3,16,0.00
2013-10-11,84.0,73.2,62.8,69.8,65.0,57.4,89,76,60,29.82,29.72,14,4,19,0.00
2013-10-12,75.2,67.5,58.7,68.7,55.3,50.4,92,66,48,30.13,29.79,9,2,12,0.00
2013-10-13,74.3,66.8,61.8,64.8,57.0,50.5,79,71,61,30.25,30.13,9,3,11,0.00
2013-10-14,66.5,63.2,57.9,65.3,59.7,55.1,97,89,71,30.15,29.85,11,3,14,0.89
2013-10-15,67.7,58.0,53.5,66.8,51.8,44.8,97,80,65,30.10,29.83,10,2,13,0.18
2013-10-16,61.4,51.2,44.4,46.6,43.8,40.7,95,77,54,30.16,30.05,9,1,11,0.02
2013-10-17,69.2,53.7,39.9,50.8,46.4,38.9,97,79,48,30.08,29.95,6,0,8,0.01
2013-10-18,52.2,46.7,38.8,49.0,43.4,36.9,96,88,76,30.18,30.01,9,2,12,0.18
2013-10-19,65.5,49.1,32.6,45.8,39.0,31.6,96,71,40,30.18,29.99,9,1,9,0.01
2013-10-20,71.7,58.1,45.9,46.6,42.7,39.3,79,59,34,29.99,29.81,12,3,16,0.00
2013-10-21,61.4,53.0,43.8,49.3,42.9,37.3,86,69,48,30.11,29.92,11,1,13,0.00
2013-10-22,73.2,56.4,43.2,49.9,44.4,37.6,87,66,39,30.10,29.97,8,1,10,0.00
2013-10-23,69.0,55.3,44.5,51.8,44.7,39.5,89,69,45,30.18,29.98,10,2,12,0.00
2013-10-24,59.2,50.9,43.3,48.3,39.5,33.1,95,67,46,30.41,30.07,11,2,15,0.00
2013-10-25,60.5,48.6,37.8,40.6,36.4,33.1,85,64,45,30.48,30.23,9,2,14,0.00
2013-11-9,69.0,60.2,50.1,47.5,45.1,41.8,85,60,38,30.26,30.10,12,1,12,0.00
2013-11-10,65.3,54.2,48.0,51.3,47.4,44.1,91,79,56,30.36,30.25,5,1,7,0.00
2013-12-1,50.4,49.5,48.5,49.0,48.2,47.4,96,95,94,29.95,29.88,2,0,2,0.00
2013-12-2,62.6,51.6,44.5,50.2,47.1,42.6,97,86,57,29.87,29.61,6,1,7,0.00
2013-12-3,66.2,52.2,44.5,53.8,48.6,43.2,97,89,62,29.62,29.48,9,2,11,0.01
2013-12-4,49.6,39.1,29.2,46.8,34.8,18.7,96,84,64,30.09,29.47,15,4,18,0.00
2013-12-5,29.3,23.5,20.3,19.4,15.5,12.3,88,71,57,30.36,30.10,16,4,22,0.00
2013-12-6,25.4,19.8,14.9,17.5,12.9,5.8,91,75,56,30.66,30.32,11,3,16,0.00
2013-12-7,21.7,17.5,11.5,14.1,8.8,4.0,77,68,60,30.72,30.30,11,4,14,0.00
2013-12-8,29.3,25.7,20.3,26.2,22.4,13.9,93,87,72,30.31,30.03,9,1,12,0.00
2013-12-9,26.0,25.0,24.0,22.6,21.5,20.4,89,87,85,30.24,30.23,2,0,2,0.00
2013-12-14,38.4,32.5,26.0,28.8,26.2,22.4,87,78,66,30.30,30.16,15,2,18,0.01
2013-12-15,61.7,42.4,23.5,36.7,28.4,20.7,92,62,31,30.30,30.11,9,1,13,0.00
2013-12-16,71.1,51.7,36.7,36.4,31.9,28.6,75,50,24,30.15,30.03,7,1,13,0.00
2013-12-17,61.9,45.3,32.6,37.4,31.8,28.0,89,62,31,30.33,30.13,8,1,10,0.00
2013-12-18,70.7,55.0,36.8,46.4,37.5,29.8,77,53,33,30.24,29.85,18,4,22,0.00
2013-12-19,63.9,58.9,52.6,57.2,52.1,45.5,87,78,70,29.85,29.62,18,6,23,0.00
2013-12-20,60.3,36.2,27.7,56.4,30.8,21.8,92,80,71,29.99,29.62,13,4,18,0.00
2013-12-21,31.4,31.2,30.4,30.1,29.8,28.9,95,95,94,29.82,29.79,0,0,0,0.00
2013-12-22,30.4,27.8,23.7,28.9,25.3,21.2,94,91,87,30.45,29.81,0,0,0,0.00
2013-12-23,26.7,22.6,17.7,23.8,20.3,15.2,94,90,85,30.66,30.43,0,0,0,0.00
2013-12-24,34.9,26.5,15.9,32.8,24.5,13.7,95,92,90,30.65,30.22,3,0,5,0.00
2013-12-25,40.7,32.4,26.6,37.1,30.8,25.4,96,94,83,30.45,30.31,5,0,8,0.12
2013-12-26,53.6,39.2,22.6,38.8,31.7,21.1,96,76,51,30.43,30.29,9,1,10,0.42
2013-12-27,62.0,46.5,31.7,36.1,31.6,27.1,86,59,34,30.42,30.27,9,2,13,0.00
2013-12-28,60.6,47.5,35.0,39.6,35.2,28.0,84,64,40,30.27,29.91,13,3,15,0.00
2013-12-29,43.9,28.7,18.8,39.4,19.2,6.5,85,68,54,30.34,29.94,17,3,17,0.00
2013-12-30,38.7,27.4,15.0,17.2,13.4,6.2,69,56,39,30.41,30.28,6,1,8,0.00
2013-12-31,57.5,41.6,23.0,28.9,24.3,16.3,85,54,25,30.40,30.11,17,4,20,0.00
2014-1-1,52.3,37.5,17.7,36.2,26.7,12.3,84,66,53,30.35,29.89,18,4,19,0.00
2014-1-2,34.3,24.2,13.4,19.8,15.0,7.9,81,68,55,30.53,30.35,15,3,16,0.00